sensor_id;sensor_type;location;lat;lon;timestamp;pressure;altitude;pressure_sealevel;temperature;humidity
28428;BME280;15662;49.128;8.520;2023-07-09T00:00:05;100637.50;;;27.20;45.37
28428;BME280;15662;49.128;8.520;2023-07-09T00:02:36;100650.09;;;27.21;45.57
28428;BME280;15662;49.128;8.520;2023-07-09T00:05:04;100652.38;;;27.16;45.75
28428;BME280;15662;49.128;8.520;2023-07-09T00:07:33;100652.19;;;27.08;45.71
28428;BME280;15662;49.128;8.520;2023-07-09T00:10:01;100642.53;;;26.94;46.00
28428;BME280;15662;49.128;8.520;2023-07-09T00:12:29;100650.69;;;26.94;45.88
28428;BME280;15662;49.128;8.520;2023-07-09T00:14:57;100655.81;;;26.88;46.04
28428;BME280;15662;49.128;8.520;2023-07-09T00:17:32;100652.41;;;26.86;46.08
28428;BME280;15662;49.128;8.520;2023-07-09T00:20:03;100665.13;;;26.85;46.27
28428;BME280;15662;49.128;8.520;2023-07-09T00:22:41;100657.38;;;26.81;46.37
28428;BME280;15662;49.128;8.520;2023-07-09T00:25:11;100659.38;;;26.79;46.37
28428;BME280;15662;49.128;8.520;2023-07-09T00:27:44;100654.63;;;26.71;46.58
28428;BME280;15662;49.128;8.520;2023-07-09T00:30:20;100664.50;;;26.72;46.80
28428;BME280;15662;49.128;8.520;2023-07-09T00:32:50;100658.88;;;26.64;46.94
28428;BME280;15662;49.128;8.520;2023-07-09T00:35:21;100663.13;;;26.57;46.90
28428;BME280;15662;49.128;8.520;2023-07-09T00:37:50;100678.84;;;26.53;47.06
28428;BME280;15662;49.128;8.520;2023-07-09T00:40:22;100663.09;;;26.47;47.13
28428;BME280;15662;49.128;8.520;2023-07-09T00:42:53;100658.66;;;26.46;47.14
28428;BME280;15662;49.128;8.520;2023-07-09T00:45:23;100666.19;;;26.21;46.97
28428;BME280;15662;49.128;8.520;2023-07-09T00:47:58;100673.00;;;26.37;46.86
28428;BME280;15662;49.128;8.520;2023-07-09T00:50:58;100674.59;;;26.39;47.09
28428;BME280;15662;49.128;8.520;2023-07-09T00:53:30;100674.88;;;26.36;46.99
28428;BME280;15662;49.128;8.520;2023-07-09T00:56:08;100660.28;;;26.37;46.94
28428;BME280;15662;49.128;8.520;2023-07-09T00:58:38;100654.25;;;26.34;46.96
28428;BME280;15662;49.128;8.520;2023-07-09T01:01:11;100667.56;;;26.37;47.09
28428;BME280;15662;49.128;8.520;2023-07-09T01:03:53;100673.88;;;26.37;47.06
28428;BME280;15662;49.128;8.520;2023-07-09T01:06:52;100672.28;;;26.35;47.33
28428;BME280;15662;49.128;8.520;2023-07-09T01:09:24;100677.13;;;26.31;47.05
28428;BME280;15662;49.128;8.520;2023-07-09T01:11:53;100682.41;;;26.33;47.18
28428;BME280;15662;49.128;8.520;2023-07-09T01:14:24;100674.41;;;26.31;47.30
28428;BME280;15662;49.128;8.520;2023-07-09T01:17:00;100682.28;;;26.34;47.50
28428;BME280;15662;49.128;8.520;2023-07-09T01:19:39;100682.28;;;26.34;47.56
28428;BME280;15662;49.128;8.520;2023-07-09T01:22:14;100683.53;;;26.30;47.41
28428;BME280;15662;49.128;8.520;2023-07-09T01:24:56;100682.56;;;26.31;47.66
28428;BME280;15662;49.128;8.520;2023-07-09T01:27:41;100674.66;;;26.28;47.83
28428;BME280;15662;49.128;8.520;2023-07-09T01:30:38;100681.09;;;26.27;47.82
28428;BME280;15662;49.128;8.520;2023-07-09T01:33:07;100685.69;;;26.27;47.88
28428;BME280;15662;49.128;8.520;2023-07-09T01:35:39;100672.09;;;26.27;47.86
28428;BME280;15662;49.128;8.520;2023-07-09T01:38:10;100683.06;;;26.25;48.02
28428;BME280;15662;49.128;8.520;2023-07-09T01:40:38;100691.50;;;26.22;47.92
28428;BME280;15662;49.128;8.520;2023-07-09T01:43:07;100689.19;;;26.17;48.06
28428;BME280;15662;49.128;8.520;2023-07-09T01:45:36;100679.81;;;26.10;48.25
28428;BME280;15662;49.128;8.520;2023-07-09T01:48:06;100680.22;;;26.06;48.40
28428;BME280;15662;49.128;8.520;2023-07-09T01:50:34;100677.63;;;26.04;48.33
28428;BME280;15662;49.128;8.520;2023-07-09T01:53:02;100679.50;;;26.04;48.41
28428;BME280;15662;49.128;8.520;2023-07-09T01:55:30;100677.03;;;26.01;48.17
28428;BME280;15662;49.128;8.520;2023-07-09T01:57:58;100683.06;;;26.04;48.23
28428;BME280;15662;49.128;8.520;2023-07-09T02:00:26;100677.63;;;26.04;48.40
28428;BME280;15662;49.128;8.520;2023-07-09T02:02:55;100677.63;;;26.04;48.35
28428;BME280;15662;49.128;8.520;2023-07-09T02:05:23;100674.31;;;26.01;48.53
28428;BME280;15662;49.128;8.520;2023-07-09T02:07:53;100665.38;;;25.89;48.76
28428;BME280;15662;49.128;8.520;2023-07-09T02:10:22;100671.19;;;25.84;48.77
28428;BME280;15662;49.128;8.520;2023-07-09T02:12:51;100677.66;;;25.72;48.83
28428;BME280;15662;49.128;8.520;2023-07-09T02:15:19;100677.44;;;25.64;49.04
28428;BME280;15662;49.128;8.520;2023-07-09T02:17:47;100684.09;;;25.60;49.08
28428;BME280;15662;49.128;8.520;2023-07-09T02:20:15;100687.09;;;25.57;48.89
28428;BME280;15662;49.128;8.520;2023-07-09T02:22:44;100675.47;;;25.55;49.14
28428;BME280;15662;49.128;8.520;2023-07-09T02:25:12;100671.75;;;25.56;48.91
28428;BME280;15662;49.128;8.520;2023-07-09T02:27:40;100689.66;;;25.58;49.02
28428;BME280;15662;49.128;8.520;2023-07-09T02:30:09;100674.63;;;25.54;48.94
28428;BME280;15662;49.128;8.520;2023-07-09T02:32:38;100680.44;;;25.50;49.25
28428;BME280;15662;49.128;8.520;2023-07-09T02:35:09;100680.66;;;25.46;49.46
28428;BME280;15662;49.128;8.520;2023-07-09T02:37:37;100673.81;;;25.42;49.43
28428;BME280;15662;49.128;8.520;2023-07-09T02:40:11;100680.19;;;25.41;49.45
28428;BME280;15662;49.128;8.520;2023-07-09T02:42:39;100681.72;;;25.34;49.66
28428;BME280;15662;49.128;8.520;2023-07-09T02:45:08;100678.50;;;25.29;49.94
28428;BME280;15662;49.128;8.520;2023-07-09T02:47:37;100665.94;;;25.17;50.10
28428;BME280;15662;49.128;8.520;2023-07-09T02:50:06;100679.63;;;25.15;50.00
28428;BME280;15662;49.128;8.520;2023-07-09T02:52:35;100680.00;;;25.11;49.85
28428;BME280;15662;49.128;8.520;2023-07-09T02:55:03;100682.72;;;25.11;50.06
28428;BME280;15662;49.128;8.520;2023-07-09T02:57:31;100681.00;;;25.10;50.00
28428;BME280;15662;49.128;8.520;2023-07-09T02:59:59;100688.41;;;25.08;49.82
28428;BME280;15662;49.128;8.520;2023-07-09T03:02:27;100682.22;;;25.06;49.85
28428;BME280;15662;49.128;8.520;2023-07-09T03:04:54;100687.91;;;25.03;50.07
28428;BME280;15662;49.128;8.520;2023-07-09T03:07:22;100694.28;;;25.02;50.14
28428;BME280;15662;49.128;8.520;2023-07-09T03:09:51;100689.22;;;24.97;50.22
28428;BME280;15662;49.128;8.520;2023-07-09T03:12:19;100701.19;;;25.06;50.02
28428;BME280;15662;49.128;8.520;2023-07-09T03:14:50;100694.81;;;25.07;50.01
28428;BME280;15662;49.128;8.520;2023-07-09T03:17:18;100694.78;;;24.95;50.46
28428;BME280;15662;49.128;8.520;2023-07-09T03:19:46;100703.28;;;25.02;50.09
28428;BME280;15662;49.128;8.520;2023-07-09T03:22:13;100713.03;;;25.05;50.24
28428;BME280;15662;49.128;8.520;2023-07-09T03:24:42;100714.56;;;25.09;50.09
28428;BME280;15662;49.128;8.520;2023-07-09T03:27:10;100718.13;;;25.09;50.21
28428;BME280;15662;49.128;8.520;2023-07-09T03:29:37;100713.69;;;25.08;50.12
28428;BME280;15662;49.128;8.520;2023-07-09T03:32:06;100719.31;;;25.05;50.52
28428;BME280;15662;49.128;8.520;2023-07-09T03:34:34;100715.00;;;24.91;50.85
28428;BME280;15662;49.128;8.520;2023-07-09T03:37:02;100719.81;;;24.88;50.80
28428;BME280;15662;49.128;8.520;2023-07-09T03:39:30;100718.94;;;24.87;50.64
28428;BME280;15662;49.128;8.520;2023-07-09T03:41:58;100726.56;;;24.82;50.98
28428;BME280;15662;49.128;8.520;2023-07-09T03:44:26;100732.13;;;24.81;50.95
28428;BME280;15662;49.128;8.520;2023-07-09T03:46:53;100731.88;;;24.73;51.11
28428;BME280;15662;49.128;8.520;2023-07-09T03:49:21;100730.41;;;24.68;50.80
28428;BME280;15662;49.128;8.520;2023-07-09T03:51:49;100738.03;;;24.75;50.90
28428;BME280;15662;49.128;8.520;2023-07-09T03:54:17;100736.56;;;24.70;50.87
28428;BME280;15662;49.128;8.520;2023-07-09T03:56:45;100743.59;;;24.73;51.17
28428;BME280;15662;49.128;8.520;2023-07-09T03:59:12;100741.13;;;24.70;50.84
28428;BME280;15662;49.128;8.520;2023-07-09T04:01:40;100743.34;;;24.65;51.23
28428;BME280;15662;49.128;8.520;2023-07-09T04:04:14;100727.06;;;24.54;51.29
28428;BME280;15662;49.128;8.520;2023-07-09T04:06:42;100734.31;;;24.53;51.29
28428;BME280;15662;49.128;8.520;2023-07-09T04:09:09;100734.19;;;24.55;51.26
28428;BME280;15662;49.128;8.520;2023-07-09T04:11:37;100723.72;;;24.50;51.20
28428;BME280;15662;49.128;8.520;2023-07-09T04:14:05;100737.03;;;24.53;51.54
28428;BME280;15662;49.128;8.520;2023-07-09T04:16:35;100740.72;;;24.52;51.40
28428;BME280;15662;49.128;8.520;2023-07-09T04:19:03;100741.69;;;24.51;51.73
28428;BME280;15662;49.128;8.520;2023-07-09T04:21:31;100744.41;;;24.51;51.78
28428;BME280;15662;49.128;8.520;2023-07-09T04:23:58;100735.06;;;24.55;51.57
28428;BME280;15662;49.128;8.520;2023-07-09T04:26:26;100746.28;;;24.62;51.52
28428;BME280;15662;49.128;8.520;2023-07-09T04:28:55;100740.84;;;24.62;51.36
28428;BME280;15662;49.128;8.520;2023-07-09T04:31:22;100759.22;;;24.69;51.58
28428;BME280;15662;49.128;8.520;2023-07-09T04:33:50;100755.53;;;24.70;51.75
28428;BME280;15662;49.128;8.520;2023-07-09T04:36:20;100750.34;;;24.67;51.66
28428;BME280;15662;49.128;8.520;2023-07-09T04:38:47;100759.72;;;24.75;51.90
28428;BME280;15662;49.128;8.520;2023-07-09T04:41:15;100769.59;;;24.76;52.06
28428;BME280;15662;49.128;8.520;2023-07-09T04:43:43;100759.59;;;24.76;51.77
28428;BME280;15662;49.128;8.520;2023-07-09T04:46:11;100769.44;;;24.77;52.23
28428;BME280;15662;49.128;8.520;2023-07-09T04:48:39;100751.47;;;24.76;51.89
28428;BME280;15662;49.128;8.520;2023-07-09T04:51:07;100757.28;;;24.83;52.15
28428;BME280;15662;49.128;8.520;2023-07-09T04:53:35;100749.03;;;24.84;52.04
28428;BME280;15662;49.128;8.520;2023-07-09T04:56:03;100758.38;;;24.91;52.20
28428;BME280;15662;49.128;8.520;2023-07-09T04:58:31;100764.31;;;24.96;52.16
28428;BME280;15662;49.128;8.520;2023-07-09T05:00:59;100765.09;;;25.10;51.67
28428;BME280;15662;49.128;8.520;2023-07-09T05:03:27;100768.16;;;25.16;51.69
28428;BME280;15662;49.128;8.520;2023-07-09T05:05:56;100759.41;;;25.24;51.12
28428;BME280;15662;49.128;8.520;2023-07-09T05:08:24;100765.19;;;25.31;51.05
28428;BME280;15662;49.128;8.520;2023-07-09T05:10:52;100773.34;;;25.42;51.00
28428;BME280;15662;49.128;8.520;2023-07-09T05:13:20;100764.69;;;25.48;50.99
28428;BME280;15662;49.128;8.520;2023-07-09T05:15:49;100763.66;;;25.60;50.90
28428;BME280;15662;49.128;8.520;2023-07-09T05:18:18;100764.16;;;25.65;50.60
28428;BME280;15662;49.128;8.520;2023-07-09T05:20:47;100768.63;;;25.78;50.31
28428;BME280;15662;49.128;8.520;2023-07-09T05:23:15;100774.53;;;25.83;50.68
28428;BME280;15662;49.128;8.520;2023-07-09T05:25:43;100775.13;;;25.86;50.51
28428;BME280;15662;49.128;8.520;2023-07-09T05:28:11;100772.16;;;25.89;50.93
28428;BME280;15662;49.128;8.520;2023-07-09T05:30:42;100774.25;;;25.97;50.97
28428;BME280;15662;49.128;8.520;2023-07-09T05:33:10;100769.78;;;25.96;51.25
28428;BME280;15662;49.128;8.520;2023-07-09T05:35:37;100773.56;;;26.05;51.55
28428;BME280;15662;49.128;8.520;2023-07-09T05:38:05;100780.47;;;26.09;51.09
28428;BME280;15662;49.128;8.520;2023-07-09T05:40:33;100787.13;;;26.16;50.72
28428;BME280;15662;49.128;8.520;2023-07-09T05:43:01;100785.75;;;26.21;50.33
28428;BME280;15662;49.128;8.520;2023-07-09T05:45:29;100777.22;;;26.26;50.39
28428;BME280;15662;49.128;8.520;2023-07-09T05:47:58;100788.16;;;26.36;50.23
28428;BME280;15662;49.128;8.520;2023-07-09T05:50:28;100779.38;;;26.43;50.05
28428;BME280;15662;49.128;8.520;2023-07-09T05:52:56;100777.09;;;26.48;50.04
28428;BME280;15662;49.128;8.520;2023-07-09T05:55:24;100782.16;;;26.53;49.69
28428;BME280;15662;49.128;8.520;2023-07-09T05:57:53;100791.22;;;26.63;49.62
28428;BME280;15662;49.128;8.520;2023-07-09T06:00:21;100789.72;;;26.70;49.27
28428;BME280;15662;49.128;8.520;2023-07-09T06:02:48;100782.75;;;26.78;49.33
28428;BME280;15662;49.128;8.520;2023-07-09T06:05:16;100784.22;;;26.82;49.08
28428;BME280;15662;49.128;8.520;2023-07-09T06:07:44;100791.88;;;26.97;48.98
28428;BME280;15662;49.128;8.520;2023-07-09T06:10:12;100789.34;;;27.06;48.83
28428;BME280;15662;49.128;8.520;2023-07-09T06:12:41;100788.56;;;27.15;48.62
28428;BME280;15662;49.128;8.520;2023-07-09T06:15:10;100783.03;;;27.26;48.39
28428;BME280;15662;49.128;8.520;2023-07-09T06:17:39;100775.47;;;27.30;48.53
28428;BME280;15662;49.128;8.520;2023-07-09T06:20:08;100790.97;;;27.48;48.05
28428;BME280;15662;49.128;8.520;2023-07-09T06:22:36;100789.63;;;27.64;48.28
28428;BME280;15662;49.128;8.520;2023-07-09T06:25:05;100792.38;;;27.83;48.42
28428;BME280;15662;49.128;8.520;2023-07-09T06:27:33;100789.69;;;28.02;48.56
28428;BME280;15662;49.128;8.520;2023-07-09T06:30:01;100791.28;;;28.24;48.65
28428;BME280;15662;49.128;8.520;2023-07-09T06:32:28;100780.09;;;28.47;48.54
28428;BME280;15662;49.128;8.520;2023-07-09T06:34:56;100783.38;;;28.70;48.16
28428;BME280;15662;49.128;8.520;2023-07-09T06:37:24;100780.59;;;28.89;47.62
28428;BME280;15662;49.128;8.520;2023-07-09T06:39:52;100782.72;;;29.15;47.45
28428;BME280;15662;49.128;8.520;2023-07-09T06:42:19;100777.72;;;29.38;47.39
28428;BME280;15662;49.128;8.520;2023-07-09T06:45:01;100787.81;;;29.65;47.31
28428;BME280;15662;49.128;8.520;2023-07-09T06:47:32;100780.03;;;29.88;46.68
28428;BME280;15662;49.128;8.520;2023-07-09T06:49:59;100785.75;;;30.12;46.34
28428;BME280;15662;49.128;8.520;2023-07-09T06:52:27;100784.44;;;30.34;45.76
28428;BME280;15662;49.128;8.520;2023-07-09T06:54:58;100783.59;;;30.51;45.32
28428;BME280;15662;49.128;8.520;2023-07-09T06:57:26;100788.91;;;30.71;44.74
28428;BME280;15662;49.128;8.520;2023-07-09T06:59:54;100780.59;;;30.80;44.24
28428;BME280;15662;49.128;8.520;2023-07-09T07:02:22;100783.09;;;31.00;43.71
28428;BME280;15662;49.128;8.520;2023-07-09T07:04:50;100786.09;;;31.15;43.42
28428;BME280;15662;49.128;8.520;2023-07-09T07:07:19;100771.25;;;31.25;43.22
28428;BME280;15662;49.128;8.520;2023-07-09T07:09:47;100771.84;;;31.37;43.02
28428;BME280;15662;49.128;8.520;2023-07-09T07:12:40;100773.09;;;31.51;42.35
28428;BME280;15662;49.128;8.520;2023-07-09T07:15:10;100768.53;;;31.59;42.57
28428;BME280;15662;49.128;8.520;2023-07-09T07:17:38;100773.50;;;31.72;41.54
28428;BME280;15662;49.128;8.520;2023-07-09T07:20:07;100763.44;;;31.81;41.13
28428;BME280;15662;49.128;8.520;2023-07-09T07:22:36;100762.13;;;31.93;40.80
28428;BME280;15662;49.128;8.520;2023-07-09T07:25:06;100767.47;;;32.03;40.46
28428;BME280;15662;49.128;8.520;2023-07-09T07:27:36;100764.69;;;32.11;40.01
28428;BME280;15662;49.128;8.520;2023-07-09T07:30:07;100767.13;;;32.22;39.55
28428;BME280;15662;49.128;8.520;2023-07-09T07:32:43;100764.91;;;32.34;39.20
28428;BME280;15662;49.128;8.520;2023-07-09T07:35:12;100766.50;;;32.37;39.02
28428;BME280;15662;49.128;8.520;2023-07-09T07:37:41;100765.78;;;32.43;38.97
28428;BME280;15662;49.128;8.520;2023-07-09T07:40:10;100772.81;;;32.53;38.59
28428;BME280;15662;49.128;8.520;2023-07-09T07:42:38;100771.25;;;32.59;38.22
28428;BME280;15662;49.128;8.520;2023-07-09T07:45:10;100777.75;;;32.74;37.95
28428;BME280;15662;49.128;8.520;2023-07-09T07:47:37;100770.22;;;32.60;39.28
28428;BME280;15662;49.128;8.520;2023-07-09T07:50:07;100759.06;;;32.78;38.05
28428;BME280;15662;49.128;8.520;2023-07-09T07:52:35;100757.84;;;32.97;37.15
28428;BME280;15662;49.128;8.520;2023-07-09T07:55:06;100756.44;;;33.09;36.77
28428;BME280;15662;49.128;8.520;2023-07-09T07:57:35;100756.75;;;33.14;36.90
28428;BME280;15662;49.128;8.520;2023-07-09T08:00:03;100760.00;;;33.26;36.16
28428;BME280;15662;49.128;8.520;2023-07-09T08:02:38;100754.97;;;33.29;35.88
28428;BME280;15662;49.128;8.520;2023-07-09T08:05:07;100750.84;;;33.33;35.91
28428;BME280;15662;49.128;8.520;2023-07-09T08:07:34;100745.50;;;33.40;35.24
28428;BME280;15662;49.128;8.520;2023-07-09T08:10:03;100745.16;;;33.43;35.31
28428;BME280;15662;49.128;8.520;2023-07-09T08:12:31;100741.38;;;33.44;34.93
28428;BME280;15662;49.128;8.520;2023-07-09T08:15:00;100748.03;;;33.50;35.06
28428;BME280;15662;49.128;8.520;2023-07-09T08:17:28;100743.25;;;33.52;35.06
28428;BME280;15662;49.128;8.520;2023-07-09T08:19:56;100746.66;;;33.54;34.61
28428;BME280;15662;49.128;8.520;2023-07-09T08:22:23;100736.88;;;33.51;34.63
28428;BME280;15662;49.128;8.520;2023-07-09T08:24:51;100743.56;;;33.57;34.28
28428;BME280;15662;49.128;8.520;2023-07-09T08:27:19;100744.22;;;33.59;34.59
28428;BME280;15662;49.128;8.520;2023-07-09T08:29:47;100746.44;;;33.63;34.62
28428;BME280;15662;49.128;8.520;2023-07-09T08:32:15;100752.63;;;33.66;34.57
28428;BME280;15662;49.128;8.520;2023-07-09T08:34:43;100747.59;;;33.69;34.31
28428;BME280;15662;49.128;8.520;2023-07-09T08:37:30;100746.28;;;33.65;34.88
28428;BME280;15662;49.128;8.520;2023-07-09T08:39:58;100735.81;;;33.60;35.01
28428;BME280;15662;49.128;8.520;2023-07-09T08:42:36;100743.91;;;33.54;34.97
28428;BME280;15662;49.128;8.520;2023-07-09T08:45:54;100722.84;;;33.46;35.68
28428;BME280;15662;49.128;8.520;2023-07-09T08:48:34;100734.31;;;33.50;35.04
28428;BME280;15662;49.128;8.520;2023-07-09T08:54:01;100738.56;;;33.60;33.94
28428;BME280;15662;49.128;8.520;2023-07-09T08:56:32;100731.09;;;33.69;34.27
28428;BME280;15662;49.128;8.520;2023-07-09T08:59:02;100728.31;;;33.77;34.00
28428;BME280;15662;49.128;8.520;2023-07-09T09:01:36;100731.19;;;33.84;33.43
28428;BME280;15662;49.128;8.520;2023-07-09T09:09:49;100739.84;;;34.04;33.16
28428;BME280;15662;49.128;8.520;2023-07-09T09:12:26;100736.84;;;34.13;32.74
28428;BME280;15662;49.128;8.520;2023-07-09T09:15:03;100724.06;;;34.21;32.58
28428;BME280;15662;49.128;8.520;2023-07-09T09:17:34;100728.75;;;34.35;32.61
28428;BME280;15662;49.128;8.520;2023-07-09T09:20:16;100731.25;;;34.45;32.57
28428;BME280;15662;49.128;8.520;2023-07-09T09:25:42;100735.97;;;34.59;32.20
28428;BME280;15662;49.128;8.520;2023-07-09T09:28:13;100735.69;;;34.69;32.09
28428;BME280;15662;49.128;8.520;2023-07-09T09:30:41;100730.78;;;34.79;31.58
28428;BME280;15662;49.128;8.520;2023-07-09T09:33:10;100726.19;;;34.86;31.81
28428;BME280;15662;49.128;8.520;2023-07-09T09:35:43;100724.59;;;34.91;31.30
28428;BME280;15662;49.128;8.520;2023-07-09T09:38:16;100729.84;;;35.01;31.76
28428;BME280;15662;49.128;8.520;2023-07-09T09:40:45;100734.41;;;35.09;31.29
28428;BME280;15662;49.128;8.520;2023-07-09T09:43:17;100719.88;;;35.15;31.34
28428;BME280;15662;49.128;8.520;2023-07-09T09:45:50;100719.56;;;35.25;31.23
28428;BME280;15662;49.128;8.520;2023-07-09T09:48:31;100716.50;;;35.34;30.91
28428;BME280;15662;49.128;8.520;2023-07-09T09:51:04;100709.16;;;35.41;30.79
28428;BME280;15662;49.128;8.520;2023-07-09T09:53:41;100705.00;;;35.46;30.74
28428;BME280;15662;49.128;8.520;2023-07-09T09:56:30;100708.31;;;35.56;30.63
28428;BME280;15662;49.128;8.520;2023-07-09T09:58:59;100711.91;;;35.56;30.57
28428;BME280;15662;49.128;8.520;2023-07-09T10:01:31;100698.66;;;35.66;30.11
28428;BME280;15662;49.128;8.520;2023-07-09T10:04:01;100708.09;;;35.72;29.85
28428;BME280;15662;49.128;8.520;2023-07-09T10:06:38;100692.25;;;35.59;30.66
28428;BME280;15662;49.128;8.520;2023-07-09T10:09:52;100685.88;;;35.80;30.13
28428;BME280;15662;49.128;8.520;2023-07-09T10:21:30;100675.78;;;36.09;28.95
28428;BME280;15662;49.128;8.520;2023-07-09T10:39:40;100659.69;;;36.40;27.99
28428;BME280;15662;49.128;8.520;2023-07-09T10:42:32;100650.44;;;36.48;27.47
28428;BME280;15662;49.128;8.520;2023-07-09T10:47:43;100657.50;;;36.57;27.09
28428;BME280;15662;49.128;8.520;2023-07-09T10:50:30;100645.00;;;36.61;26.98
28428;BME280;15662;49.128;8.520;2023-07-09T10:56:14;100639.72;;;36.66;26.84
28428;BME280;15662;49.128;8.520;2023-07-09T11:01:58;100627.47;;;36.76;26.24
28428;BME280;15662;49.128;8.520;2023-07-09T11:04:59;100630.00;;;36.77;26.28
28428;BME280;15662;49.128;8.520;2023-07-09T11:07:44;100633.66;;;36.84;26.15
28428;BME280;15662;49.128;8.520;2023-07-09T11:10:29;100633.72;;;36.91;25.96
28428;BME280;15662;49.128;8.520;2023-07-09T11:16:03;100625.00;;;36.94;26.20
28428;BME280;15662;49.128;8.520;2023-07-09T11:18:35;100616.56;;;37.02;26.05
28428;BME280;15662;49.128;8.520;2023-07-09T11:21:06;100616.63;;;37.15;25.64
28428;BME280;15662;49.128;8.520;2023-07-09T11:23:46;100623.00;;;37.23;25.37
28428;BME280;15662;49.128;8.520;2023-07-09T11:26:31;100621.53;;;37.27;25.54
28428;BME280;15662;49.128;8.520;2023-07-09T11:31:44;100611.31;;;37.34;25.13
28428;BME280;15662;49.128;8.520;2023-07-09T11:37:00;100615.22;;;37.46;25.36
28428;BME280;15662;49.128;8.520;2023-07-09T11:42:33;100602.88;;;37.49;24.35
28428;BME280;15662;49.128;8.520;2023-07-09T11:45:14;100596.94;;;37.52;24.12
28428;BME280;15662;49.128;8.520;2023-07-09T11:48:31;100600.59;;;37.59;23.86
28428;BME280;15662;49.128;8.520;2023-07-09T11:50:51;100593.78;;;37.61;23.69
28428;BME280;15662;49.128;8.520;2023-07-09T11:53:36;100595.28;;;37.70;23.28
28428;BME280;15662;49.128;8.520;2023-07-09T11:56:08;100588.66;;;37.72;23.57
28428;BME280;15662;49.128;8.520;2023-07-09T11:58:36;100589.72;;;37.77;23.46
28428;BME280;15662;49.128;8.520;2023-07-09T12:01:29;100588.25;;;37.81;22.87
28428;BME280;15662;49.128;8.520;2023-07-09T12:03:59;100590.41;;;37.86;22.88
28428;BME280;15662;49.128;8.520;2023-07-09T12:06:31;100585.53;;;37.94;22.82
28428;BME280;15662;49.128;8.520;2023-07-09T12:09:00;100585.06;;;37.98;22.98
28428;BME280;15662;49.128;8.520;2023-07-09T12:11:35;100570.59;;;38.02;22.62
28428;BME280;15662;49.128;8.520;2023-07-09T12:14:11;100574.66;;;38.06;22.70
28428;BME280;15662;49.128;8.520;2023-07-09T12:16:42;100575.50;;;38.07;22.74
28428;BME280;15662;49.128;8.520;2023-07-09T12:19:19;100564.63;;;38.12;22.14
28428;BME280;15662;49.128;8.520;2023-07-09T12:21:57;100563.34;;;38.14;22.38
28428;BME280;15662;49.128;8.520;2023-07-09T12:24:30;100559.94;;;38.19;22.15
28428;BME280;15662;49.128;8.520;2023-07-09T12:27:03;100549.69;;;38.26;22.23
28428;BME280;15662;49.128;8.520;2023-07-09T12:29:35;100548.44;;;38.29;21.49
28428;BME280;15662;49.128;8.520;2023-07-09T12:32:12;100537.59;;;38.34;21.40
28428;BME280;15662;49.128;8.520;2023-07-09T12:34:41;100535.66;;;38.34;21.45
28428;BME280;15662;49.128;8.520;2023-07-09T12:37:14;100545.44;;;38.43;21.52
28428;BME280;15662;49.128;8.520;2023-07-09T12:39:42;100536.47;;;38.41;20.98
28428;BME280;15662;49.128;8.520;2023-07-09T12:42:23;100530.69;;;38.50;21.02
28428;BME280;15662;49.128;8.520;2023-07-09T12:44:52;100522.41;;;38.50;20.93
28428;BME280;15662;49.128;8.520;2023-07-09T12:47:20;100529.41;;;38.52;21.08
28428;BME280;15662;49.128;8.520;2023-07-09T12:49:51;100512.13;;;38.57;20.95
28428;BME280;15662;49.128;8.520;2023-07-09T12:52:27;100515.97;;;38.62;21.36
28428;BME280;15662;49.128;8.520;2023-07-09T12:54:57;100509.91;;;38.72;21.03
28428;BME280;15662;49.128;8.520;2023-07-09T12:57:26;100502.31;;;38.61;21.49
28428;BME280;15662;49.128;8.520;2023-07-09T12:59:55;100507.59;;;38.76;21.28
28428;BME280;15662;49.128;8.520;2023-07-09T13:02:27;100496.03;;;38.85;20.92
28428;BME280;15662;49.128;8.520;2023-07-09T13:05:13;100496.81;;;38.99;20.75
28428;BME280;15662;49.128;8.520;2023-07-09T13:07:57;100490.84;;;39.02;20.60
28428;BME280;15662;49.128;8.520;2023-07-09T13:10:31;100492.72;;;39.08;20.67
28428;BME280;15662;49.128;8.520;2023-07-09T13:13:10;100477.81;;;39.03;20.82
28428;BME280;15662;49.128;8.520;2023-07-09T13:15:43;100483.50;;;39.14;20.25
28428;BME280;15662;49.128;8.520;2023-07-09T13:18:14;100479.44;;;39.17;19.96
28428;BME280;15662;49.128;8.520;2023-07-09T13:20:44;100473.81;;;38.99;21.12
28428;BME280;15662;49.128;8.520;2023-07-09T13:23:25;100483.91;;;39.18;20.50
28428;BME280;15662;49.128;8.520;2023-07-09T13:25:54;100468.75;;;39.20;20.34
28428;BME280;15662;49.128;8.520;2023-07-09T13:28:30;100464.44;;;39.31;19.87
28428;BME280;15662;49.128;8.520;2023-07-09T13:31:13;100473.38;;;39.33;19.99
28428;BME280;15662;49.128;8.520;2023-07-09T13:33:44;100473.38;;;39.33;20.10
28428;BME280;15662;49.128;8.520;2023-07-09T13:36:17;100466.66;;;39.41;19.87
28428;BME280;15662;49.128;8.520;2023-07-09T13:38:45;100474.72;;;39.49;19.74
28428;BME280;15662;49.128;8.520;2023-07-09T13:41:16;100467.19;;;39.56;19.66
28428;BME280;15662;49.128;8.520;2023-07-09T13:43:46;100467.19;;;39.56;19.59
28428;BME280;15662;49.128;8.520;2023-07-09T13:46:15;100469.09;;;39.56;19.29
28428;BME280;15662;49.128;8.520;2023-07-09T13:48:44;100471.44;;;39.59;19.03
28428;BME280;15662;49.128;8.520;2023-07-09T13:53:43;100458.06;;;39.49;19.64
28428;BME280;15662;49.128;8.520;2023-07-09T13:56:11;100451.41;;;39.57;19.37
28428;BME280;15662;49.128;8.520;2023-07-09T13:58:39;100459.69;;;39.63;19.10
28428;BME280;15662;49.128;8.520;2023-07-09T14:01:16;100448.59;;;39.63;18.61
28428;BME280;15662;49.128;8.520;2023-07-09T14:03:46;100452.38;;;39.69;18.86
28428;BME280;15662;49.128;8.520;2023-07-09T14:06:16;100439.97;;;39.71;18.84
28428;BME280;15662;49.128;8.520;2023-07-09T14:08:44;100446.06;;;39.80;18.64
28428;BME280;15662;49.128;8.520;2023-07-09T14:11:16;100437.88;;;39.85;18.27